Time;durP1;ratioP1;P1;durP2;ratioP2;P2;SDS_P1;SDS_P2;PMS_P1;PMS_P2;Temp;Humidity;BMP_temperature;BMP_pressure;BME280_temperature;BME280_humidity;BME280_pressure;Samples;Min_cycle;Max_cycle;Signal;HPM_P1;HPM_P2
2022/01/23 00:00:18;;;;;;;;;86.00;66.50;;;;;-2.97;84.31;101259.53;4879505;29;8862;-71
2022/01/23 00:03:18;;;;;;;;;74.75;63.50;;;;;-3.25;84.32;101257.34;4879443;29;8871;-71
2022/01/23 00:06:14;;;;;;;;;81.75;64.50;;;;;-3.24;83.96;101256.28;4876479;29;8981;-70
2022/01/23 00:09:09;;;;;;;;;84.50;69.25;;;;;-3.34;83.75;101248.72;4880084;29;8874;-70
2022/01/23 00:12:11;;;;;;;;;85.25;66.50;;;;;-3.36;83.44;101258.94;4879981;29;8998;-70
2022/01/23 00:18:21;;;;;;;;;89.00;70.00;;;;;-3.45;83.62;101250.28;4869554;29;8973;-70
2022/01/23 00:21:17;;;;;;;;;97.25;70.75;;;;;-3.63;83.55;101258.38;4877695;29;8985;-70
2022/01/23 00:33:05;;;;;;;;;130.25;114.75;;;;;-3.84;84.89;101266.88;4875181;29;8854;-70
2022/01/23 00:36:03;;;;;;;;;124.50;101.50;;;;;-3.99;84.73;101264.50;4878709;29;8854;-70
2022/01/23 00:38:58;;;;;;;;;166.75;141.50;;;;;-3.89;84.15;101274.84;4879373;29;8855;-69
2022/01/23 00:41:26;;;;;;;;;139.75;120.25;;;;;-4.03;84.08;101266.00;4878044;29;9715;-70
2022/01/23 00:44:21;;;;;;;;;97.25;61.75;;;;;-4.03;84.38;101263.31;4890174;29;8867;-70
2022/01/23 00:47:17;;;;;;;;;178.75;140.25;;;;;-4.00;85.74;101262.84;4879149;29;8866;-69
2022/01/23 00:50:13;;;;;;;;;170.00;137.00;;;;;-3.95;85.74;101269.25;4882480;29;8862;-70
2022/01/23 00:53:10;;;;;;;;;158.50;129.25;;;;;-4.05;84.83;101265.41;4882221;29;8996;-69
2022/01/23 00:56:06;;;;;;;;;179.75;129.75;;;;;-3.97;83.68;101278.66;4866811;29;8877;-69
2022/01/23 00:59:03;;;;;;;;;149.25;111.50;;;;;-4.04;82.92;101273.28;4863240;29;8900;-70
2022/01/23 01:01:59;;;;;;;;;238.50;186.25;;;;;-4.34;82.15;101280.38;4863638;29;8944;-70
2022/01/23 01:04:54;;;;;;;;;226.75;176.25;;;;;-4.36;82.65;101275.19;4863284;29;8959;-70
2022/01/23 01:07:22;;;;;;;;;199.00;157.00;;;;;-4.51;82.63;101274.66;4888259;29;8869;-70
2022/01/23 01:10:24;;;;;;;;;119.25;97.75;;;;;-4.59;82.97;101272.22;4866694;29;8921;-69
2022/01/23 01:13:21;;;;;;;;;114.50;85.50;;;;;-4.72;82.31;101278.50;4879121;29;8934;-70
2022/01/23 01:32:16;;;;;;;;;87.00;66.25;;;;;-5.32;84.12;101265.25;4863113;29;8989;-70
2022/01/23 01:35:35;;;;;;;;;82.50;66.25;;;;;-5.40;83.57;101260.09;4862793;29;8845;-70
2022/01/23 01:38:31;;;;;;;;;85.00;65.25;;;;;-5.16;83.06;101265.84;4881357;29;8858;-70
2022/01/23 01:41:27;;;;;;;;;90.50;71.50;;;;;-5.09;83.10;101259.38;4892101;29;8899;-69
2022/01/23 01:44:24;;;;;;;;;93.25;73.75;;;;;-5.05;83.21;101273.28;4881495;29;8873;-69
2022/01/23 01:47:20;;;;;;;;;98.75;76.50;;;;;-5.08;82.37;101285.31;4880701;29;9661;-68
2022/01/23 01:50:15;;;;;;;;;81.75;60.00;;;;;-5.16;82.09;101288.25;4879718;29;8850;-69
2022/01/23 01:53:12;;;;;;;;;90.25;70.50;;;;;-5.20;82.05;101286.19;4881225;29;8889;-70
2022/01/23 01:56:07;;;;;;;;;104.25;81.00;;;;;-5.22;81.45;101282.88;4877016;29;8896;-70
2022/01/23 02:12:02;;;;;;;;;100.50;76.50;;;;;-5.27;81.57;101282.69;4862477;29;8966;-69
2022/01/23 02:24:47;;;;;;;;;109.00;84.00;;;;;-5.04;81.71;101283.84;4861906;29;9624;-69
2022/01/23 02:55:52;;;;;;;;;135.75;100.00;;;;;-5.72;81.59;101318.44;4862467;29;8869;-70
2022/01/23 02:58:59;;;;;;;;;141.00;116.75;;;;;-5.65;81.96;101319.25;4860091;29;8869;-70
2022/01/23 03:02:12;;;;;;;;;113.25;92.00;;;;;-5.75;81.15;101321.53;4861695;29;8988;-70
2022/01/23 03:05:12;;;;;;;;;111.75;92.00;;;;;-5.62;80.93;101326.91;4861347;29;8920;-70
2022/01/23 03:08:25;;;;;;;;;97.50;74.50;;;;;-5.58;81.18;101340.81;4875001;29;8879;-70
2022/01/23 03:12:10;;;;;;;;;110.00;84.75;;;;;-5.61;80.53;101336.66;4890055;29;8893;-70
2022/01/23 03:33:18;;;;;;;;;94.75;74.50;;;;;-5.93;81.26;101324.88;4879501;29;8874;-69
2022/01/23 03:36:14;;;;;;;;;104.00;77.50;;;;;-5.91;81.97;101325.50;4878151;29;8912;-69
2022/01/23 03:39:10;;;;;;;;;98.50;76.50;;;;;-5.71;81.52;101324.63;4860908;29;8909;-70
2022/01/23 03:41:51;;;;;;;;;107.75;83.25;;;;;-5.85;81.75;101325.69;4872589;29;8987;-69
2022/01/23 03:45:16;;;;;;;;;124.25;108.25;;;;;-5.84;81.80;101324.63;4870505;29;8900;-69
2022/01/23 03:51:10;;;;;;;;;98.00;75.00;;;;;-5.81;80.85;101335.84;4879816;29;8863;-69
2022/01/23 03:54:05;;;;;;;;;103.75;76.75;;;;;-5.84;80.75;101338.09;4880014;29;8862;-69
2022/01/23 03:57:03;;;;;;;;;85.00;68.25;;;;;-6.03;81.34;101346.00;4877151;29;9732;-70
2022/01/23 03:59:59;;;;;;;;;84.50;67.50;;;;;-6.11;81.24;101343.50;4879207;29;8914;-69
2022/01/23 04:02:54;;;;;;;;;67.50;57.25;;;;;-6.10;80.93;101341.66;4877673;29;8846;-69
2022/01/23 04:05:50;;;;;;;;;97.25;78.00;;;;;-6.26;80.87;101338.31;4888439;29;8882;-68
2022/01/23 04:08:46;;;;;;;;;101.25;75.25;;;;;-6.41;81.80;101344.91;4860694;29;8861;-69
2022/01/23 04:11:41;;;;;;;;;95.75;75.00;;;;;-6.34;81.82;101341.19;4858940;29;9584;-69
2022/01/23 04:14:44;;;;;;;;;93.25;71.00;;;;;-6.19;80.99;101347.22;4860362;29;9727;-70
2022/01/23 04:34:00;;;;;;;;;150.00;123.25;;;;;-6.17;80.61;101355.09;4880952;29;8879;-70
2022/01/23 04:47:05;;;;;;;;;125.25;105.25;;;;;-6.35;80.86;101365.63;4863625;29;8997;-70
2022/01/23 05:04:59;;;;;;;;;83.50;65.50;;;;;-6.38;80.42;101376.78;4874524;29;8901;-70
2022/01/23 05:07:56;;;;;;;;;80.00;64.50;;;;;-6.19;80.46;101370.63;4875537;29;9113;-70
2022/01/23 05:10:52;;;;;;;;;79.00;64.00;;;;;-6.31;79.66;101377.63;4879890;29;8858;-70
2022/01/23 05:13:48;;;;;;;;;79.25;63.00;;;;;-6.21;79.94;101380.75;4878530;29;8879;-70
2022/01/23 05:16:43;;;;;;;;;73.25;61.25;;;;;-6.43;79.47;101381.97;4878115;29;8846;-70
2022/01/23 05:19:40;;;;;;;;;83.50;67.75;;;;;-6.49;80.44;101386.28;4879977;29;8851;-70
2022/01/23 05:22:35;;;;;;;;;125.00;109.75;;;;;-6.37;80.15;101397.28;4877669;29;8885;-69
2022/01/23 05:28:07;;;;;;;;;46.25;20.25;;;;;-6.63;81.66;101392.63;4877666;29;8874;-69
2022/01/23 05:31:03;;;;;;;;;108.50;81.50;;;;;-6.72;81.44;101402.75;4879575;29;8854;-70
2022/01/23 05:33:59;;;;;;;;;108.00;87.00;;;;;-6.70;81.22;101410.59;4879989;29;8843;-69
2022/01/23 05:36:40;;;;;;;;;111.25;85.50;;;;;-6.58;81.37;101404.47;4878521;29;8878;-69
2022/01/23 05:39:08;;;;;;;;;119.00;92.25;;;;;-6.67;81.18;101403.00;4879988;29;9011;-69
2022/01/23 05:41:40;;;;;;;;;120.50;96.50;;;;;-6.50;80.69;101404.28;4873230;29;8880;-69
2022/01/23 05:44:22;;;;;;;;;117.50;96.00;;;;;-6.53;79.94;101407.38;4860978;29;8865;-69
2022/01/23 05:47:05;;;;;;;;;120.50;94.50;;;;;-6.32;79.71;101413.66;4862882;29;8988;-69
2022/01/23 05:49:46;;;;;;;;;158.00;121.50;;;;;-6.35;79.92;101419.47;4887023;29;8921;-69
2022/01/23 05:52:22;;;;;;;;;149.50;131.50;;;;;-6.32;79.19;101416.38;4876480;29;8887;-69
2022/01/23 05:54:49;;;;;;;;;177.00;139.75;;;;;-6.40;79.26;101417.38;4881370;29;8989;-69
2022/01/23 05:57:17;;;;;;;;;182.00;143.25;;;;;-6.52;79.42;101427.91;4881349;29;8904;-69
2022/01/23 05:59:53;;;;;;;;;202.00;154.00;;;;;-6.63;80.79;101422.25;4875877;29;8874;-69
2022/01/23 06:02:22;;;;;;;;;199.25;158.00;;;;;-6.45;81.21;101420.66;4871116;29;8878;-69
2022/01/23 06:04:52;;;;;;;;;219.75;178.00;;;;;-6.41;79.99;101422.97;4890014;29;8875;-69
2022/01/23 06:07:22;;;;;;;;;81.50;44.50;;;;;-6.42;80.36;101421.31;4879247;29;8913;-69
2022/01/23 06:09:50;;;;;;;;;219.50;166.75;;;;;-6.38;80.23;101417.16;4893830;29;8866;-69
2022/01/23 06:12:19;;;;;;;;;188.75;136.25;;;;;-6.29;80.50;101422.16;4878659;29;8905;-69
2022/01/23 06:14:47;;;;;;;;;188.00;147.50;;;;;-6.28;79.64;101418.47;4879896;29;8933;-69
2022/01/23 06:17:16;;;;;;;;;170.50;147.75;;;;;-6.30;80.09;101433.13;4880049;29;8879;-69
2022/01/23 06:19:43;;;;;;;;;136.25;105.25;;;;;-6.35;80.37;101422.16;4879623;29;8883;-69
2022/01/23 06:22:13;;;;;;;;;122.00;102.75;;;;;-6.31;80.22;101424.22;4878418;29;8871;-71
2022/01/23 06:24:47;;;;;;;;;146.25;108.25;;;;;-6.21;79.56;101426.53;4878460;29;8946;-67
2022/01/23 06:27:15;;;;;;;;;136.25;108.75;;;;;-6.11;80.10;101427.00;4878326;29;8896;-70
2022/01/23 06:29:44;;;;;;;;;114.00;91.50;;;;;-6.29;79.92;101432.09;4859461;29;8986;-70
2022/01/23 06:32:12;;;;;;;;;129.50;107.25;;;;;-6.16;80.24;101430.28;4878685;29;8933;-67
2022/01/23 06:34:58;;;;;;;;;167.00;129.75;;;;;-6.20;80.19;101428.22;4891028;29;8879;-68
2022/01/23 06:37:25;;;;;;;;;146.50;120.75;;;;;-6.08;80.08;101429.28;4879325;29;8871;-68
2022/01/23 06:39:53;;;;;;;;;135.00;119.50;;;;;-5.86;79.96;101427.22;4879306;29;8925;-69
2022/01/23 06:42:20;;;;;;;;;162.50;136.00;;;;;-5.93;79.58;101432.63;4877386;29;8977;-69
2022/01/23 06:44:48;;;;;;;;;122.00;87.75;;;;;-5.91;80.36;101432.41;4878971;29;8912;-69
2022/01/23 06:47:15;;;;;;;;;169.25;132.25;;;;;-5.78;81.02;101434.28;4878947;29;9002;-69
2022/01/23 06:49:43;;;;;;;;;186.25;147.75;;;;;-5.83;80.92;101436.75;4878923;29;8897;-69
2022/01/23 06:52:11;;;;;;;;;180.75;154.75;;;;;-5.81;80.45;101424.75;4879197;29;8886;-69
2022/01/23 06:54:38;;;;;;;;;222.25;166.50;;;;;-5.75;80.32;101425.78;4877758;29;8898;-69
2022/01/23 06:57:06;;;;;;;;;190.50;155.25;;;;;-5.61;80.19;101436.38;4878903;29;8992;-69
2022/01/23 06:59:34;;;;;;;;;108.75;69.00;;;;;-5.44;79.94;101442.22;4880510;29;8874;-69
2022/01/23 07:02:03;;;;;;;;;74.50;61.00;;;;;-5.42;79.42;101442.81;4875815;29;8880;-73
2022/01/23 07:04:33;;;;;;;;;151.25;126.75;;;;;-5.32;79.11;101434.31;4861654;29;9607;-69
2022/01/23 07:07:00;;;;;;;;;140.00;126.25;;;;;-5.19;78.74;101450.50;4861640;29;8884;-70
2022/01/23 07:09:29;;;;;;;;;154.75;120.75;;;;;-5.12;78.88;101439.69;4872394;29;8870;-69
2022/01/23 07:11:56;;;;;;;;;139.50;114.00;;;;;-4.91;78.85;101450.22;4878919;29;8854;-69
2022/01/23 07:14:24;;;;;;;;;146.50;122.25;;;;;-4.86;78.16;101460.41;4876597;29;8869;-70
2022/01/23 07:17:06;;;;;;;;;117.75;82.50;;;;;-4.81;78.61;101466.84;4860129;29;8881;-69
2022/01/23 07:20:01;;;;;;;;;134.50;112.00;;;;;-4.68;78.76;101459.75;4871597;29;8888;-70
2022/01/23 07:22:31;;;;;;;;;159.00;120.00;;;;;-4.59;78.93;101464.72;4893857;29;8866;-70
2022/01/23 07:25:07;;;;;;;;;149.25;113.75;;;;;-4.29;78.91;101465.03;4879780;29;8867;-69
2022/01/23 07:28:06;;;;;;;;;133.50;111.25;;;;;-4.06;78.78;101469.09;4877539;29;8871;-70
2022/01/23 07:31:03;;;;;;;;;141.50;114.75;;;;;-3.90;79.12;101490.22;4864171;29;8876;-70
2022/01/23 07:33:36;;;;;;;;;147.00;116.75;;;;;-3.85;79.58;101484.97;4861273;29;8873;-70
2022/01/23 07:36:34;;;;;;;;;149.00;121.00;;;;;-3.75;79.20;101484.53;4861022;29;8854;-71
2022/01/23 07:39:29;;;;;;;;;165.25;119.50;;;;;-3.72;79.19;101489.50;4861749;29;8890;-70
2022/01/23 07:41:57;;;;;;;;;153.25;118.50;;;;;-3.77;78.53;101492.84;4881375;29;8886;-70
2022/01/23 07:44:25;;;;;;;;;141.25;121.50;;;;;-3.69;78.86;101492.56;4879429;29;8863;-70
2022/01/23 07:46:55;;;;;;;;;146.25;126.75;;;;;-3.58;79.29;101501.06;4878619;29;8882;-70
2022/01/23 07:49:23;;;;;;;;;90.25;60.00;;;;;-3.40;79.20;101506.56;4868584;29;8870;-69
2022/01/23 07:51:51;;;;;;;;;174.75;135.00;;;;;-3.34;78.79;101492.16;4893962;29;8878;-70
2022/01/23 07:54:47;;;;;;;;;133.75;114.00;;;;;-3.36;78.85;101500.50;4888968;29;8866;-70
2022/01/23 07:57:15;;;;;;;;;151.00;123.00;;;;;-3.32;78.40;101509.00;4878484;29;8858;-71
2022/01/23 07:59:42;;;;;;;;;114.00;94.50;;;;;-3.17;78.83;101505.97;4867556;29;8947;-71
2022/01/23 08:02:11;;;;;;;;;88.00;65.00;;;;;-2.91;79.17;101507.66;4861103;29;8888;-70
2022/01/23 08:05:09;;;;;;;;;69.75;54.50;;;;;-3.12;79.35;101506.97;4860419;29;8873;-70
2022/01/23 08:07:37;;;;;;;;;92.50;72.50;;;;;-2.98;79.45;101515.81;4865057;29;8980;-70
2022/01/23 08:10:08;;;;;;;;;75.75;63.25;;;;;-3.06;79.28;101513.38;4871803;29;8886;-70
2022/01/23 08:12:36;;;;;;;;;83.00;66.25;;;;;-2.79;78.73;101522.09;4876121;29;8894;-70
2022/01/23 08:15:05;;;;;;;;;93.25;72.25;;;;;-2.65;78.59;101530.94;4885371;29;8862;-73
2022/01/23 08:17:33;;;;;;;;;114.00;80.50;;;;;-2.69;78.28;101527.00;4879261;29;8878;-70
2022/01/23 08:20:03;;;;;;;;;98.25;74.00;;;;;-2.64;78.18;101538.81;4878230;29;8870;-71
2022/01/23 08:22:32;;;;;;;;;115.25;93.00;;;;;-2.59;78.77;101530.88;4879183;29;8866;-71
2022/01/23 08:25:29;;;;;;;;;114.75;90.25;;;;;-2.36;77.64;101534.81;4879514;29;8881;-71
2022/01/23 08:28:25;;;;;;;;;115.25;90.75;;;;;-2.33;76.51;101537.06;4878678;29;8894;-71
2022/01/23 08:31:20;;;;;;;;;110.00;78.25;;;;;-2.38;77.12;101531.47;4878888;29;9660;-71
2022/01/23 08:34:16;;;;;;;;;99.75;80.00;;;;;-2.39;77.42;101536.06;4878820;29;8914;-72
2022/01/23 08:36:43;;;;;;;;;113.25;79.50;;;;;-2.31;77.26;101530.34;4879219;29;8980;-70
2022/01/23 08:39:40;;;;;;;;;105.50;81.50;;;;;-2.32;77.22;101530.59;4877406;29;8898;-71
2022/01/23 08:42:17;;;;;;;;;105.00;77.50;;;;;-2.30;77.79;101534.75;4879125;29;8981;-70
2022/01/23 08:44:47;;;;;;;;;92.50;69.50;;;;;-2.29;77.38;101530.16;4893587;29;8930;-70
2022/01/23 08:47:15;;;;;;;;;98.00;77.50;;;;;-2.21;77.91;101537.16;4879271;29;8875;-70
2022/01/23 08:49:47;;;;;;;;;101.75;77.25;;;;;-2.14;77.94;101538.75;4893364;29;8866;-71
2022/01/23 08:52:17;;;;;;;;;74.75;57.25;;;;;-1.93;77.50;101537.44;4893218;29;9653;-70
2022/01/23 08:54:49;;;;;;;;;94.50;71.75;;;;;-1.83;77.69;101545.88;4879025;29;8879;-70
2022/01/23 08:57:19;;;;;;;;;93.75;70.50;;;;;-1.67;76.73;101539.00;4877974;29;8883;-70
2022/01/23 08:59:48;;;;;;;;;75.75;62.00;;;;;-1.56;76.90;101531.97;4878942;29;9637;-72
2022/01/23 09:02:30;;;;;;;;;54.00;45.00;;;;;-1.37;76.56;101540.88;4877932;29;8878;-71
2022/01/23 09:05:27;;;;;;;;;72.00;58.67;;;;;-1.43;75.68;101545.34;4879959;29;9664;-71
2022/01/23 09:08:24;;;;;;;;;82.75;65.75;;;;;-1.27;75.81;101546.59;4892949;29;8866;-73
2022/01/23 09:11:23;;;;;;;;;73.00;59.50;;;;;-1.12;75.67;101544.25;4894247;29;8875;-71
2022/01/23 09:14:07;;;;;;;;;108.25;85.25;;;;;-0.86;75.93;101545.72;4882145;29;8882;-69
2022/01/23 09:16:38;;;;;;;;;87.00;72.00;;;;;-0.82;74.83;101552.34;4882299;29;9613;-71
2022/01/23 09:19:07;;;;;;;;;92.75;72.25;;;;;-0.65;74.88;101561.44;4881160;29;8878;-71
2022/01/23 09:21:36;;;;;;;;;43.00;41.67;;;;;-0.79;72.82;101556.47;4865771;29;8913;-70
2022/01/23 09:24:06;;;;;;;;;108.75;82.00;;;;;-0.54;73.55;101554.38;4882038;29;8870;-71
2022/01/23 09:26:36;;;;;;;;;71.67;57.00;;;;;-0.49;73.54;101564.53;4882068;29;8901;-71
2022/01/23 09:29:23;;;;;;;;;38.67;37.00;;;;;-0.48;71.82;101548.00;4896381;29;8961;-71
2022/01/23 09:31:53;;;;;;;;;51.67;48.00;;;;;-0.56;72.51;101545.63;4881857;29;8970;-72
2022/01/23 09:34:28;;;;;;;;;36.00;34.33;;;;;-0.42;71.37;101543.50;4881603;29;8883;-72
2022/01/23 09:37:24;;;;;;;;;39.67;38.33;;;;;-0.57;70.48;101550.22;4891928;29;8862;-71
2022/01/23 09:40:20;;;;;;;;;27.00;27.00;;;;;-0.56;70.50;101554.59;4881588;29;8874;-72
2022/01/23 09:42:55;;;;;;;;;25.00;24.67;;;;;-0.37;70.18;101551.78;4881769;29;8858;-72
2022/01/23 09:45:24;;;;;;;;;42.00;34.00;;;;;-0.26;70.62;101545.50;4881568;29;8937;-72
2022/01/23 09:47:55;;;;;;;;;59.33;48.67;;;;;-0.22;70.57;101545.88;4895837;29;8863;-72
2022/01/23 09:50:36;;;;;;;;;44.67;37.67;;;;;-0.23;69.69;101538.75;4894116;29;8886;-72
2022/01/23 09:53:06;;;;;;;;;34.00;29.00;;;;;-0.25;69.60;101549.88;4881711;29;9643;-72
2022/01/23 09:55:35;;;;;;;;;22.00;22.00;;;;;-0.34;69.57;101543.13;4881420;29;8886;-73
2022/01/23 09:58:32;;;;;;;;;31.00;31.00;;;;;-0.40;69.22;101544.91;4880377;29;8870;-72
2022/01/23 10:01:29;;;;;;;;;53.67;48.33;;;;;-0.34;69.74;101551.28;4891479;29;8855;-72
2022/01/23 10:04:11;;;;;;;;;12.67;12.67;;;;;-0.48;68.34;101541.72;4879362;29;9659;-72
2022/01/23 10:07:07;;;;;;;;;85.67;67.67;;;;;-0.41;69.29;101551.41;4892084;29;9085;-72
2022/01/23 10:09:39;;;;;;;;;127.50;95.00;;;;;-0.32;68.79;101543.72;4881553;29;8889;-72
2022/01/23 10:12:42;;;;;;;;;44.33;42.33;;;;;-0.30;69.33;101549.78;4892036;29;8877;-72
2022/01/23 10:15:37;;;;;;;;;25.67;25.33;;;;;-0.44;68.93;101549.19;4881464;29;8937;-72
2022/01/23 10:18:33;;;;;;;;;33.67;32.33;;;;;-0.53;68.80;101544.34;4880860;29;8863;-72
2022/01/23 10:21:31;;;;;;;;;36.33;34.00;;;;;-0.38;69.66;101550.97;4881420;29;8858;-73
2022/01/23 10:24:27;;;;;;;;;43.67;43.00;;;;;-0.15;68.51;101546.56;4878870;29;9787;-73
2022/01/23 10:27:23;;;;;;;;;39.67;37.33;;;;;-0.09;68.28;101545.59;4880745;29;8881;-73
2022/01/23 10:29:51;;;;;;;;;28.67;28.00;;;;;-0.14;68.32;101548.22;4875889;29;8873;-73
2022/01/23 10:32:25;;;;;;;;;27.33;27.00;;;;;-0.11;68.09;101550.44;4862479;29;9639;-75
2022/01/23 10:35:02;;;;;;;;;37.33;36.67;;;;;-0.22;68.62;101551.31;4895341;29;8874;-73
2022/01/23 10:37:41;;;;;;;;;21.00;21.00;;;;;-0.13;68.71;101547.16;4881572;29;8878;-73
2022/01/23 10:40:28;;;;;;;;;47.33;44.00;;;;;-0.18;69.28;101552.47;4868868;29;8895;-74
2022/01/23 10:48:46;;;;;;;;;46.67;40.00;;;;;-0.19;69.32;101572.56;4858047;29;9662;-73
2022/01/23 10:51:36;;;;;;;;;28.67;28.67;;;;;-0.39;69.93;101578.34;4857018;29;9753;-73
2022/01/23 10:54:21;;;;;;;;;39.67;32.67;;;;;-0.32;70.34;101573.63;4853610;29;8900;-73
2022/01/23 10:56:59;;;;;;;;;40.67;37.67;;;;;-0.35;70.55;101571.41;4854028;29;9023;-72
2022/01/23 10:59:45;;;;;;;;;36.33;36.00;;;;;-0.25;70.21;101579.78;4870364;29;8882;-75
2022/01/23 11:02:25;;;;;;;;;34.00;30.00;;;;;-0.33;70.28;101583.66;4875059;29;8906;-73
2022/01/23 11:05:05;;;;;;;;;29.33;24.67;;;;;-0.34;70.60;101583.91;4873309;29;8969;-74
2022/01/23 11:07:38;;;;;;;;;30.33;27.00;;;;;-0.21;71.04;101583.69;4877607;29;8887;-73
2022/01/23 11:10:13;;;;;;;;;33.67;29.33;;;;;-0.18;71.06;101587.81;4878764;29;9667;-73
2022/01/23 11:17:21;;;;;;;;;30.33;28.67;;;;;-0.31;70.98;101591.59;4892427;29;8908;-73
2022/01/23 11:18:45;;;;;;;;;33.67;32.33;;;;;-0.50;72.55;101596.31;4878428;29;8898;-73
2022/01/23 11:21:18;;;;;;;;;33.33;28.67;;;;;-0.36;71.98;101595.03;4877544;29;9041;-72
2022/01/23 11:24:11;;;;;;;;;28.33;25.67;;;;;-0.37;72.19;101600.72;4878371;29;8890;-71
2022/01/23 11:26:40;;;;;;;;;14.33;10.00;;;;;-0.36;72.41;101607.78;4876967;29;9000;-72
2022/01/23 11:29:14;;;;;;;;;27.33;26.33;;;;;-0.25;72.79;101603.41;4877243;29;8901;-72
2022/01/23 11:31:46;;;;;;;;;32.00;28.00;;;;;-0.39;73.18;101603.63;4892334;29;8901;-72
2022/01/23 11:34:14;;;;;;;;;15.67;15.67;;;;;-0.51;74.53;101596.56;4877268;29;8887;-73
2022/01/23 11:36:42;;;;;;;;;27.00;25.67;;;;;-0.42;75.76;101597.84;4876976;29;8862;-73
2022/01/23 11:39:42;;;;;;;;;27.67;27.67;;;;;-0.39;76.94;101600.91;4890474;29;8940;-72
2022/01/23 11:56:37;;;;;;;;;42.33;38.67;;;;;-0.73;83.77;101601.72;4876015;29;8977;-73
2022/01/23 11:59:47;;;;;;;;;51.00;43.33;;;;;-0.63;84.33;101610.94;4859966;29;8968;-73
2022/01/23 12:02:30;;;;;;;;;42.67;39.00;;;;;-0.68;84.67;101607.28;4821925;29;8881;-73
2022/01/23 12:05:25;;;;;;;;;45.33;41.00;;;;;-0.82;84.69;101611.28;4819459;29;8908;-74
2022/01/23 12:08:16;;;;;;;;;34.67;34.00;;;;;-0.83;85.67;101617.78;4862431;29;8886;-73
2022/01/23 12:17:08;;;;;;;;;47.67;45.33;;;;;-0.89;87.27;101625.78;4873475;29;8890;-73
2022/01/23 12:20:04;;;;;;;;;52.33;47.33;;;;;-0.91;88.45;101618.94;4865849;29;8872;-74
2022/01/23 12:22:40;;;;;;;;;67.33;52.67;;;;;-1.01;89.67;101619.47;4860776;29;8873;-74
2022/01/23 12:25:08;;;;;;;;;39.67;36.33;;;;;-0.80;88.82;101614.59;4860797;29;8877;-74
2022/01/23 12:28:08;;;;;;;;;54.00;48.00;;;;;-0.79;87.45;101627.09;4870471;29;8881;-74
2022/01/23 12:31:13;;;;;;;;;69.33;57.33;;;;;-0.92;87.75;101625.41;4862624;29;8841;-74
2022/01/23 12:34:01;;;;;;;;;46.33;42.67;;;;;-1.28;87.98;101629.06;4860598;29;8939;-74
2022/01/23 12:36:57;;;;;;;;;67.00;55.00;;;;;-1.32;88.49;101623.25;4871344;29;8842;-74
2022/01/23 12:39:29;;;;;;;;;52.33;48.00;;;;;-1.31;88.33;101622.19;4878316;29;8882;-74
2022/01/23 12:42:25;;;;;;;;;49.00;44.33;;;;;-1.11;88.06;101635.50;4864058;29;8947;-74
2022/01/23 12:45:42;;;;;;;;;60.33;50.00;;;;;-1.18;87.50;101643.72;4864647;29;8889;-74
2022/01/23 12:48:44;;;;;;;;;51.00;48.00;;;;;-1.17;87.55;101648.09;4862470;29;8896;-74
2022/01/23 12:51:12;;;;;;;;;55.33;48.67;;;;;-1.28;87.43;101645.34;4864350;29;8857;-74
2022/01/23 12:53:43;;;;;;;;;67.00;51.33;;;;;-1.21;87.63;101649.63;4863024;29;8996;-74
2022/01/23 12:56:44;;;;;;;;;68.00;54.33;;;;;-1.12;86.92;101655.56;4863930;29;8885;-74
2022/01/23 12:59:42;;;;;;;;;68.33;54.67;;;;;-1.12;87.49;101655.56;4862569;29;9627;-74
2022/01/23 13:02:41;;;;;;;;;58.67;52.00;;;;;-1.03;87.47;101654.19;4863013;29;8892;-73
2022/01/23 13:05:10;;;;;;;;;64.67;54.00;;;;;-1.01;87.57;101653.94;4863859;29;8873;-74
2022/01/23 13:07:47;;;;;;;;;72.67;59.33;;;;;-1.01;87.75;101665.63;4862803;29;8915;-74
2022/01/23 13:12:56;;;;;;;;;62.33;51.00;;;;;-0.92;86.53;101655.28;4863933;29;8853;-74
2022/01/23 13:35:33;;;;;;;;;73.67;58.00;;;;;-1.46;88.09;101667.88;4863153;29;8992;-74
2022/01/23 13:38:33;;;;;;;;;60.75;51.50;;;;;-1.48;87.49;101667.28;4861460;29;8877;-73
2022/01/23 13:41:25;;;;;;;;;47.00;45.33;;;;;-1.54;88.24;101668.19;4862370;29;8913;-73
2022/01/23 14:00:22;;;;;;;;;61.25;50.00;;;;;-1.76;89.96;101681.41;4862788;29;8877;-73
2022/01/23 14:03:17;;;;;;;;;64.33;49.00;;;;;-1.83;89.50;101684.19;4873235;29;8849;-73
2022/01/23 14:05:45;;;;;;;;;49.67;48.00;;;;;-1.84;90.32;101679.81;4863150;29;8877;-72
2022/01/23 14:08:13;;;;;;;;;50.00;46.00;;;;;-1.97;90.14;101677.22;4862795;29;8976;-74
2022/01/23 14:10:41;;;;;;;;;45.67;42.67;;;;;-2.02;90.27;101680.59;4862880;29;8885;-74
2022/01/23 14:13:19;;;;;;;;;60.67;52.00;;;;;-1.99;90.54;101682.88;4862710;29;8976;-72
2022/01/23 14:15:49;;;;;;;;;62.33;51.67;;;;;-2.12;90.73;101680.28;4862840;29;8877;-74
2022/01/23 14:18:26;;;;;;;;;58.67;48.33;;;;;-1.98;90.63;101686.41;4861685;29;8869;-74
2022/01/23 14:21:09;;;;;;;;;55.00;45.75;;;;;-2.05;90.25;101672.94;4861862;29;8892;-74
2022/01/23 14:23:37;;;;;;;;;51.33;46.67;;;;;-2.05;90.37;101675.63;4862569;29;8869;-74
2022/01/23 14:26:09;;;;;;;;;50.67;48.33;;;;;-2.09;90.51;101668.16;4861250;29;8877;-74
2022/01/23 14:29:06;;;;;;;;;56.33;48.00;;;;;-2.11;90.56;101667.56;4862130;29;8865;-74
2022/01/23 14:32:18;;;;;;;;;58.33;52.00;;;;;-2.13;90.41;101667.78;4862147;29;8869;-73
2022/01/23 14:35:25;;;;;;;;;42.33;39.33;;;;;-2.19;90.20;101662.44;4860544;29;8884;-73
2022/01/23 14:38:17;;;;;;;;;56.50;50.00;;;;;-2.16;90.49;101667.38;4860292;29;8888;-72
2022/01/23 14:40:51;;;;;;;;;45.50;43.75;;;;;-2.19;89.98;101667.84;4858769;29;8999;-73
2022/01/23 14:43:20;;;;;;;;;58.50;49.00;;;;;-2.09;89.55;101674.41;4862529;29;8988;-72
2022/01/23 14:45:50;;;;;;;;;52.75;48.25;;;;;-2.18;89.36;101681.16;4878837;29;8890;-71
2022/01/23 14:48:18;;;;;;;;;66.25;53.50;;;;;-2.07;90.20;101690.44;4877914;29;8874;-73
2022/01/23 14:50:51;;;;;;;;;26.33;23.33;;;;;-2.30;90.53;101691.06;4877456;29;8871;-73
2022/01/23 14:53:24;;;;;;;;;63.75;51.50;;;;;-2.22;90.48;101700.78;4895440;29;8886;-74
2022/01/23 14:55:55;;;;;;;;;60.25;52.00;;;;;-2.28;90.62;101691.69;4890439;29;8939;-74
2022/01/23 14:58:23;;;;;;;;;58.50;51.50;;;;;-2.24;90.78;101691.00;4886388;29;8986;-72
2022/01/23 15:01:19;;;;;;;;;62.50;53.25;;;;;-2.22;90.45;101704.38;4897257;29;8879;-72
2022/01/23 15:03:52;;;;;;;;;70.00;56.50;;;;;-2.31;90.67;101702.94;4893455;29;8875;-71
2022/01/23 15:06:52;;;;;;;;;66.75;54.75;;;;;-2.22;90.68;101701.66;4889060;29;8882;-72
2022/01/23 15:09:50;;;;;;;;;60.50;53.00;;;;;-2.19;90.16;101694.94;4881195;29;8863;-72
2022/01/23 15:12:53;;;;;;;;;45.67;43.00;;;;;-2.18;90.29;101702.03;4894791;29;8868;-73
2022/01/23 15:15:21;;;;;;;;;38.67;34.67;;;;;-2.31;90.15;101705.66;4882978;29;8932;-74
2022/01/23 15:17:51;;;;;;;;;49.00;46.25;;;;;-2.26;90.89;101709.38;4894306;29;8957;-73
2022/01/23 15:20:48;;;;;;;;;37.67;35.00;;;;;-2.28;90.15;101706.06;4879799;29;9017;-73
2022/01/23 15:23:20;;;;;;;;;33.33;33.33;;;;;-2.24;89.88;101718.09;4895808;29;8886;-73
2022/01/23 15:26:15;;;;;;;;;42.67;33.67;;;;;-2.32;90.18;101704.84;4898229;29;8868;-72
2022/01/23 15:29:12;;;;;;;;;39.00;37.67;;;;;-2.11;89.47;101695.50;4888559;29;8876;-73
2022/01/23 15:31:42;;;;;;;;;42.33;40.33;;;;;-2.17;89.83;101707.22;4879418;29;8904;-70
2022/01/23 15:34:09;;;;;;;;;43.00;42.33;;;;;-2.09;89.04;101711.53;4883155;29;8955;-72
2022/01/23 15:36:37;;;;;;;;;37.00;34.67;;;;;-2.07;88.76;101706.72;4880825;29;8870;-72
2022/01/23 15:39:06;;;;;;;;;31.67;28.00;;;;;-2.08;88.42;101705.88;4887665;29;9024;-72
2022/01/23 15:41:34;;;;;;;;;39.67;34.67;;;;;-1.99;88.18;101691.00;4878551;29;8870;-73
2022/01/23 15:44:03;;;;;;;;;48.67;44.33;;;;;-2.14;88.57;101687.00;4875331;29;8965;-72
2022/01/23 15:46:35;;;;;;;;;41.00;41.00;;;;;-2.04;87.86;101684.59;4878561;29;8886;-73
2022/01/23 15:49:08;;;;;;;;;33.33;31.67;;;;;-2.08;87.89;101695.03;4879610;29;8863;-73
2022/01/23 15:51:37;;;;;;;;;33.00;30.67;;;;;-2.21;88.05;101691.63;4878900;29;8863;-73
2022/01/23 15:54:06;;;;;;;;;50.67;45.67;;;;;-2.24;88.32;101695.59;4879619;29;8878;-72
2022/01/23 15:56:36;;;;;;;;;38.67;37.33;;;;;-2.08;87.44;101697.75;4877771;29;8985;-73